Time;durP1;ratioP1;P1;durP2;ratioP2;P2;SDS_P1;SDS_P2;PMS_P1;PMS_P2;Temp;Humidity;BMP_temperature;BMP_pressure;BME280_temperature;BME280_humidity;BME280_pressure;Samples;Min_cycle;Max_cycle;Signal;HPM_P1;HPM_P2
2022/04/25 00:01:26;;;;;;;14.95;11.45;;;;;;;10.18;64.92;96264.81;6123481;23;20192;-81
2022/04/25 00:03:52;;;;;;;17.13;12.48;;;;;;;10.18;64.64;96264.00;6064866;23;20191;-81
2022/04/25 00:06:17;;;;;;;17.92;13.93;;;;;;;10.19;64.53;96261.13;6060539;23;20567;-80
2022/04/25 00:08:42;;;;;;;14.85;11.50;;;;;;;10.21;64.36;96266.88;6120568;23;20273;-80
2022/04/25 00:11:08;;;;;;;15.52;12.68;;;;;;;10.20;64.22;96267.91;6084333;23;20175;-80
2022/04/25 00:13:33;;;;;;;14.55;11.45;;;;;;;10.24;63.85;96268.94;6085440;23;20230;-80
2022/04/25 00:15:59;;;;;;;14.73;11.20;;;;;;;10.38;63.25;96278.81;6085796;23;20250;-80
2022/04/25 00:18:25;;;;;;;14.70;10.82;;;;;;;10.37;62.94;96274.69;6119210;23;20171;-80
2022/04/25 00:20:50;;;;;;;12.60;10.45;;;;;;;9.99;63.90;96272.38;6095768;23;20214;-81
2022/04/25 00:23:16;;;;;;;13.38;10.13;;;;;;;10.04;63.74;96274.16;6109220;23;20271;-80
2022/04/25 00:25:41;;;;;;;13.98;10.82;;;;;;;9.98;63.30;96275.25;6085302;23;20141;-81
2022/04/25 00:28:07;;;;;;;13.80;11.13;;;;;;;9.81;63.45;96276.28;6118416;23;20140;-81
2022/04/25 00:30:33;;;;;;;12.73;9.88;;;;;;;9.75;63.90;96279.94;6094258;23;20156;-81
2022/04/25 00:32:59;;;;;;;12.93;10.05;;;;;;;9.66;64.17;96278.88;6086449;23;20095;-80
2022/04/25 00:35:25;;;;;;;13.88;9.95;;;;;;;9.65;64.19;96277.34;6095407;23;20298;-81
2022/04/25 00:37:51;;;;;;;15.57;11.32;;;;;;;9.53;64.58;96280.97;6095237;23;20183;-81
2022/04/25 00:40:22;;;;;;;15.60;10.65;;;;;;;9.61;63.81;96279.66;6094535;23;20193;-80
2022/04/25 00:42:48;;;;;;;14.48;10.95;;;;;;;9.67;63.40;96285.66;6119654;23;20179;-81
2022/04/25 00:45:14;;;;;;;13.27;10.15;;;;;;;9.53;64.33;96285.41;6094795;23;20080;-81
2022/04/25 00:47:42;;;;;;;13.70;10.35;;;;;;;9.47;64.79;96276.78;6095745;23;20179;-81
2022/04/25 00:50:09;;;;;;;12.32;9.55;;;;;;;9.50;64.29;96281.47;6117288;23;20172;-81
2022/04/25 00:52:35;;;;;;;13.63;10.20;;;;;;;9.48;64.38;96288.00;6119223;23;20591;-81
2022/04/25 00:55:04;;;;;;;14.32;11.15;;;;;;;9.37;64.68;96276.78;6120480;23;20286;-81
2022/04/25 00:57:30;;;;;;;15.27;10.60;;;;;;;9.46;64.91;96274.44;6085488;23;20299;-81
2022/04/25 00:59:57;;;;;;;17.73;12.25;;;;;;;9.41;65.37;96266.66;6094743;23;20341;-81
2022/04/25 01:02:23;;;;;;;16.13;12.65;;;;;;;9.46;65.26;96270.06;6087448;23;20572;-81
2022/04/25 01:04:48;;;;;;;15.15;10.88;;;;;;;9.47;65.24;96263.81;6120111;23;20234;-81
2022/04/25 01:07:14;;;;;;;17.35;12.35;;;;;;;9.45;65.46;96263.28;6089353;23;20494;-81
2022/04/25 01:09:39;;;;;;;16.13;11.57;;;;;;;9.47;65.14;96260.44;6120146;23;20233;-81
2022/04/25 01:12:05;;;;;;;18.20;12.63;;;;;;;9.40;65.99;96258.09;6061468;23;20289;-81
2022/04/25 01:14:31;;;;;;;18.38;13.00;;;;;;;9.36;65.77;96259.66;6094625;23;20261;-81
2022/04/25 01:16:56;;;;;;;19.33;14.18;;;;;;;9.29;66.04;96252.13;6094735;23;20081;-81
2022/04/25 01:19:22;;;;;;;17.40;12.30;;;;;;;9.32;65.83;96256.00;6119095;23;20176;-81
2022/04/25 01:21:52;;;;;;;17.00;12.35;;;;;;;9.19;65.35;96247.69;6084231;23;20216;-81
2022/04/25 01:27:16;;;;;;;16.40;12.10;;;;;;;9.08;65.03;96266.09;6088690;23;20191;-81
2022/04/25 01:29:49;;;;;;;15.10;11.68;;;;;;;9.20;65.07;96258.84;6061924;23;20159;-81
2022/04/25 01:32:15;;;;;;;15.68;11.77;;;;;;;9.17;65.12;96257.53;6062949;23;20153;-81
2022/04/25 01:34:41;;;;;;;16.88;12.73;;;;;;;9.16;65.03;96257.81;6085516;23;20256;-81
2022/04/25 01:37:08;;;;;;;15.68;12.38;;;;;;;9.13;65.28;96260.91;6095160;23;20216;-80
2022/04/25 01:39:35;;;;;;;17.92;11.95;;;;;;;9.11;65.38;96255.97;6084847;23;20370;-80
2022/04/25 01:42:01;;;;;;;17.13;13.43;;;;;;;9.11;65.58;96255.97;6119049;23;20258;-80
2022/04/25 01:44:26;;;;;;;17.38;12.52;;;;;;;9.16;65.48;96263.00;6084495;23;20176;-81
2022/04/25 01:46:52;;;;;;;15.13;11.55;;;;;;;9.22;64.93;96253.38;6095274;23;20252;-81
2022/04/25 01:49:18;;;;;;;15.93;11.35;;;;;;;9.19;64.92;96252.88;6093917;23;20226;-81
2022/04/25 01:51:44;;;;;;;14.98;11.70;;;;;;;9.29;64.49;96253.94;6094357;23;20229;-80
2022/04/25 01:54:09;;;;;;;16.73;12.00;;;;;;;9.27;64.35;96254.19;6060762;23;20188;-81
2022/04/25 01:56:35;;;;;;;15.60;11.32;;;;;;;9.29;64.66;96254.72;6119620;23;20175;-80
2022/04/25 01:59:00;;;;;;;14.98;11.15;;;;;;;9.25;64.54;96264.03;6094970;23;20211;-80
2022/04/25 02:01:29;;;;;;;15.43;11.15;;;;;;;9.18;64.46;96263.50;6123097;23;20169;-81
2022/04/25 02:03:59;;;;;;;13.50;10.55;;;;;;;9.18;64.71;96268.72;6093169;23;20349;-81
2022/04/25 02:06:26;;;;;;;14.65;10.68;;;;;;;9.17;64.82;96267.94;6091775;23;20294;-81
2022/04/25 02:08:51;;;;;;;13.45;10.60;;;;;;;9.13;64.89;96259.09;6096121;23;20163;-81
2022/04/25 02:11:20;;;;;;;13.68;9.90;;;;;;;9.10;64.81;96262.22;6093680;23;20179;-81
2022/04/25 02:13:46;;;;;;;13.25;10.50;;;;;;;9.11;64.67;96257.78;6095690;23;20263;-81
2022/04/25 02:16:12;;;;;;;14.70;10.90;;;;;;;9.05;65.74;96262.19;6119743;23;20671;-81
2022/04/25 02:18:41;;;;;;;15.45;11.15;;;;;;;9.11;65.41;96258.56;6084964;23;20188;-81
2022/04/25 02:21:07;;;;;;;13.77;11.02;;;;;;;9.27;64.87;96256.00;6084898;23;20081;-80
2022/04/25 02:23:34;;;;;;;16.70;12.15;;;;;;;9.25;64.95;96265.88;6111175;23;20277;-81
2022/04/25 02:26:01;;;;;;;16.83;12.40;;;;;;;9.33;65.02;96260.16;6125556;23;20598;-80
2022/04/25 02:28:29;;;;;;;16.10;12.02;;;;;;;9.41;64.64;96272.66;6101643;23;20188;-81
2022/04/25 02:30:58;;;;;;;19.60;11.23;;;;;;;9.41;64.23;96270.06;6067935;23;20077;-80
2022/04/25 02:33:24;;;;;;;16.02;11.63;;;;;;;9.38;64.38;96268.72;6126276;23;20276;-81
2022/04/25 02:35:50;;;;;;;16.38;11.32;;;;;;;9.33;64.85;96263.53;6119345;23;20509;-80
2022/04/25 02:38:15;;;;;;;15.02;10.88;;;;;;;9.25;64.98;96264.03;6059092;23;20271;-80
2022/04/25 02:40:40;;;;;;;19.38;13.73;;;;;;;9.26;65.47;96267.44;6094236;23;20664;-80
2022/04/25 02:43:06;;;;;;;18.35;13.30;;;;;;;9.25;66.43;96269.22;6059885;23;20180;-81
2022/04/25 02:45:31;;;;;;;19.83;14.60;;;;;;;9.22;66.86;96255.97;6059598;23;20161;-81
2022/04/25 02:47:57;;;;;;;20.13;14.80;;;;;;;9.25;66.89;96252.88;6094171;23;20160;-81
2022/04/25 02:50:22;;;;;;;20.55;14.80;;;;;;;9.21;66.79;96247.41;6093592;23;20370;-80
2022/04/25 02:52:51;;;;;;;19.05;13.57;;;;;;;9.29;66.35;96253.94;6093643;23;20182;-80
2022/04/25 02:55:16;;;;;;;18.92;14.07;;;;;;;9.32;66.32;96243.00;6084494;23;20252;-80
2022/04/25 02:57:41;;;;;;;19.17;14.15;;;;;;;9.33;66.07;96247.19;6145251;23;20536;-80
2022/04/25 03:00:08;;;;;;;22.13;15.55;;;;;;;9.32;66.23;96253.41;6083889;23;20107;-81
2022/04/25 03:02:33;;;;;;;20.90;14.68;;;;;;;9.40;66.09;96255.50;6120553;23;20038;-80
2022/04/25 03:04:58;;;;;;;18.23;13.80;;;;;;;9.47;65.10;96255.22;6119968;23;20168;-80
2022/04/25 03:07:24;;;;;;;18.55;13.63;;;;;;;9.44;64.81;96268.75;6086002;23;20196;-80
2022/04/25 03:09:49;;;;;;;18.75;14.13;;;;;;;9.34;64.83;96277.31;6120018;23;20164;-80
2022/04/25 03:12:16;;;;;;;19.95;12.68;;;;;;;9.32;64.79;96274.97;6095989;23;20191;-80
2022/04/25 03:14:42;;;;;;;18.55;12.90;;;;;;;9.26;64.83;96272.63;6096329;23;20599;-80
2022/04/25 03:17:07;;;;;;;16.23;12.32;;;;;;;9.17;65.26;96273.13;6086016;23;20157;-80
2022/04/25 03:19:33;;;;;;;17.00;12.65;;;;;;;9.14;65.15;96278.06;6120657;23;20176;-80
2022/04/25 03:22:01;;;;;;;19.65;14.13;;;;;;;9.09;65.21;96278.06;6096304;23;20172;-80
2022/04/25 03:24:26;;;;;;;17.85;13.00;;;;;;;9.05;65.87;96266.59;6096709;23;20237;-80
2022/04/25 03:26:52;;;;;;;17.23;13.02;;;;;;;9.00;65.40;96262.97;6120730;23;20332;-81
2022/04/25 03:29:17;;;;;;;17.73;12.65;;;;;;;9.08;65.26;96266.09;6095648;23;20163;-81
2022/04/25 03:31:43;;;;;;;19.63;14.35;;;;;;;9.10;65.64;96270.00;6120788;23;20183;-81
2022/04/25 03:34:08;;;;;;;19.77;13.60;;;;;;;9.08;65.71;96268.69;6087990;23;20616;-81
2022/04/25 03:36:34;;;;;;;19.73;13.30;;;;;;;9.12;65.54;96267.16;6096111;23;20261;-81
2022/04/25 03:38:59;;;;;;;18.05;13.27;;;;;;;9.10;65.53;96262.22;6120659;23;20634;-81
2022/04/25 03:41:25;;;;;;;18.27;13.38;;;;;;;9.09;66.12;96271.03;6119366;23;20164;-81
2022/04/25 03:43:50;;;;;;;20.13;14.25;;;;;;;9.08;65.66;96269.50;6085054;23;20523;-80
2022/04/25 03:46:18;;;;;;;21.65;15.13;;;;;;;9.12;66.42;96274.94;6147385;23;20232;-80
2022/04/25 03:48:44;;;;;;;20.38;14.65;;;;;;;9.15;66.18;96271.81;6110448;23;20183;-81
2022/04/25 03:51:09;;;;;;;23.33;16.20;;;;;;;9.17;66.41;96278.31;6119915;23;20738;-81
2022/04/25 03:53:35;;;;;;;25.90;16.73;;;;;;;9.20;67.08;96277.00;6094963;23;20160;-81
2022/04/25 03:58:44;;;;;;;21.50;14.85;;;;;;;9.32;66.37;96285.38;6124603;23;20524;-80
2022/04/25 04:01:09;;;;;;;22.20;15.40;;;;;;;9.36;66.39;96288.22;6084783;23;20180;-81
2022/04/25 04:03:35;;;;;;;25.60;18.35;;;;;;;9.32;66.47;96277.56;6120529;23;20683;-81
2022/04/25 04:06:01;;;;;;;23.80;17.65;;;;;;;9.35;66.28;96284.06;6119164;23;20161;-81
2022/04/25 04:08:26;;;;;;;22.90;16.02;;;;;;;9.43;66.02;96275.75;6061304;23;20519;-80
2022/04/25 04:10:52;;;;;;;24.20;16.65;;;;;;;9.48;65.92;96288.00;6118768;23;20066;-81
2022/04/25 04:13:17;;;;;;;24.10;15.75;;;;;;;9.48;65.67;96280.97;6094866;23;20207;-80
2022/04/25 04:15:42;;;;;;;21.95;15.63;;;;;;;9.56;65.55;96288.25;6094759;23;20253;-80
2022/04/25 04:18:08;;;;;;;21.15;14.70;;;;;;;9.59;65.44;96293.97;6120454;23;20517;-80
2022/04/25 04:20:34;;;;;;;21.90;16.27;;;;;;;9.62;65.41;96290.84;6094894;23;20165;-80
2022/04/25 04:23:00;;;;;;;22.88;15.88;;;;;;;9.50;65.55;96285.91;6095239;23;20177;-80
2022/04/25 04:25:25;;;;;;;21.48;15.30;;;;;;;9.53;66.11;96304.34;6086180;23;20305;-80
2022/04/25 04:27:50;;;;;;;21.48;14.45;;;;;;;9.56;65.92;96309.03;6095518;23;20214;-80
2022/04/25 04:30:18;;;;;;;23.38;16.08;;;;;;;9.65;65.65;96316.34;6119859;23;20195;-80
2022/04/25 04:32:44;;;;;;;24.13;16.75;;;;;;;9.70;65.93;96306.72;6111838;23;20184;-80
2022/04/25 04:35:15;;;;;;;24.08;15.75;;;;;;;9.49;66.24;96298.13;6094522;23;20187;-82
2022/04/25 04:37:41;;;;;;;21.00;14.60;;;;;;;9.57;66.55;96282.00;6095199;23;20208;-82
2022/04/25 04:42:52;;;;;;;;;;;;;;;9.55;66.10;96330.09;6128514;23;20554;-86
2022/04/25 04:45:18;;;;;;;20.25;14.32;;;;;;;9.74;64.88;96338.16;6088804;23;19981;-85
2022/04/25 04:47:43;;;;;;;20.67;14.82;;;;;;;9.73;65.23;96337.38;6111428;23;20650;-82
2022/04/25 04:50:14;;;;;;;21.27;14.88;;;;;;;9.70;65.80;96340.50;6060375;23;20261;-81
2022/04/25 04:52:51;;;;;;;21.23;14.73;;;;;;;9.73;65.99;96329.59;6148584;23;20175;-81
2022/04/25 04:55:17;;;;;;;24.30;16.27;;;;;;;9.75;65.98;96340.50;6062133;23;20218;-81
2022/04/25 04:57:42;;;;;;;24.52;16.67;;;;;;;9.73;66.65;96341.78;6096380;23;20273;-81
2022/04/25 05:00:16;;;;;;;26.90;16.40;;;;;;;9.59;66.21;96346.72;6121025;23;20247;-81
2022/04/25 05:02:42;;;;;;;27.88;19.00;;;;;;;9.65;67.10;96352.72;6062563;23;20170;-81
2022/04/25 05:05:08;;;;;;;24.70;17.75;;;;;;;9.68;66.64;96350.38;6095960;23;20589;-81
2022/04/25 05:07:35;;;;;;;37.25;21.65;;;;;;;9.71;66.78;96344.63;6061142;23;20352;-81
2022/04/25 05:10:03;;;;;;;32.78;19.50;;;;;;;9.73;66.24;96346.97;6060544;23;20323;-81
2022/04/25 05:12:29;;;;;;;25.80;16.73;;;;;;;9.74;66.51;96343.34;6061332;23;20241;-82
2022/04/25 05:14:58;;;;;;;25.75;18.00;;;;;;;9.78;65.92;96344.38;6084843;23;20615;-81
2022/04/25 05:17:23;;;;;;;23.40;16.85;;;;;;;9.88;65.97;96349.59;6120067;23;20186;-82
2022/04/25 05:19:48;;;;;;;22.95;16.08;;;;;;;9.94;65.80;96343.38;6061146;23;20710;-81
2022/04/25 05:22:14;;;;;;;25.38;16.90;;;;;;;10.05;65.72;96349.34;6084704;23;20275;-82
2022/04/25 05:24:39;;;;;;;23.10;16.13;;;;;;;10.04;65.38;96344.38;6120416;23;20168;-81
2022/04/25 05:27:05;;;;;;;24.33;16.85;;;;;;;10.01;66.16;96337.91;6060208;23;20598;-81
2022/04/25 05:29:30;;;;;;;23.35;16.70;;;;;;;10.04;66.36;96339.19;6119545;23;20614;-81
2022/04/25 05:31:56;;;;;;;27.52;17.73;;;;;;;10.14;66.99;96349.59;6095587;23;20034;-82
2022/04/25 05:34:21;;;;;;;22.80;16.17;;;;;;;10.25;66.37;96351.16;6063567;23;20220;-82
2022/04/25 05:36:47;;;;;;;25.88;16.88;;;;;;;10.25;66.16;96353.75;6061843;23;20183;-82
2022/04/25 05:39:12;;;;;;;23.52;16.00;;;;;;;10.31;65.98;96357.13;6120513;23;20160;-82
2022/04/25 05:41:40;;;;;;;22.90;17.13;;;;;;;10.34;65.62;96367.03;6096145;23;20193;-82
2022/04/25 05:44:09;;;;;;;22.42;16.10;;;;;;;10.38;65.37;96370.66;6085843;23;20287;-82
2022/04/25 05:46:34;;;;;;;21.95;16.10;;;;;;;10.44;65.38;96366.25;6096645;23;20257;-82
2022/04/25 05:51:59;;;;;;;23.33;16.48;;;;;;;10.34;66.34;96379.28;6089843;23;20202;-82
2022/04/25 05:54:26;;;;;;;24.98;17.30;;;;;;;10.42;66.91;96376.94;6099717;23;20175;-82
2022/04/25 05:56:52;;;;;;;24.65;17.92;;;;;;;10.57;66.44;96376.09;6148376;23;20149;-82
2022/04/25 05:59:18;;;;;;;26.55;17.75;;;;;;;10.72;66.47;96379.72;6061194;23;20637;-82
2022/04/25 06:01:44;;;;;;;24.60;17.98;;;;;;;10.80;66.24;96363.56;6096519;23;20149;-82
2022/04/25 06:04:09;;;;;;;23.67;16.42;;;;;;;10.98;66.04;96375.22;6120652;23;20229;-82
2022/04/25 06:06:34;;;;;;;23.27;17.38;;;;;;;11.13;65.95;96379.59;6092861;23;20641;-82
2022/04/25 06:09:00;;;;;;;24.90;17.65;;;;;;;11.25;66.27;96390.47;6085331;23;20171;-82
2022/04/25 06:11:26;;;;;;;25.05;19.05;;;;;;;11.31;66.30;96384.22;6095873;23;20224;-82
2022/04/25 06:13:53;;;;;;;25.77;16.83;;;;;;;11.43;66.32;96387.28;6119720;23;20260;-82
2022/04/25 06:16:18;;;;;;;25.52;18.17;;;;;;;11.47;66.09;96389.34;6121497;23;20172;-82
2022/04/25 06:18:43;;;;;;;22.65;16.60;;;;;;;11.63;65.92;96390.81;6095682;23;20595;-82
2022/04/25 06:21:09;;;;;;;23.20;16.50;;;;;;;11.72;65.61;96391.81;6080483;23;20277;-82
2022/04/25 06:23:34;;;;;;;21.63;16.52;;;;;;;11.87;65.93;96392.75;6095019;23;20085;-82
2022/04/25 06:25:59;;;;;;;23.95;16.70;;;;;;;12.06;65.26;96400.72;6061568;23;20234;-82
2022/04/25 06:28:25;;;;;;;22.80;17.13;;;;;;;12.22;65.17;96401.38;6120287;23;20277;-82
2022/04/25 06:30:51;;;;;;;20.73;15.77;;;;;;;12.35;63.35;96405.97;6118982;23;20161;-82
2022/04/25 06:33:17;;;;;;;21.67;15.65;;;;;;;12.44;63.98;96406.97;6122450;23;20087;-82
2022/04/25 06:35:44;;;;;;;19.23;15.65;;;;;;;12.46;63.80;96406.69;6064708;23;20105;-83
2022/04/25 06:38:09;;;;;;;18.23;14.48;;;;;;;12.53;63.23;96407.13;6122588;23;20255;-82
2022/04/25 06:40:35;;;;;;;20.73;15.02;;;;;;;12.47;63.05;96409.00;6123935;23;20165;-83
2022/04/25 06:43:00;;;;;;;18.08;13.98;;;;;;;12.45;63.18;96413.72;6066518;23;20595;-82
2022/04/25 06:45:26;;;;;;;16.75;13.38;;;;;;;12.44;63.27;96414.00;6124309;23;20750;-82
2022/04/25 06:47:52;;;;;;;20.40;14.68;;;;;;;12.38;63.37;96407.28;6097007;23;20163;-83
2022/04/25 06:50:18;;;;;;;17.33;14.13;;;;;;;12.42;63.05;96411.66;6097182;23;20168;-82
2022/04/25 06:52:44;;;;;;;20.00;14.93;;;;;;;12.54;63.09;96409.47;6120998;23;20160;-82
2022/04/25 06:55:10;;;;;;;17.05;13.93;;;;;;;12.61;62.62;96408.34;6062984;23;20172;-82
2022/04/25 06:57:36;;;;;;;16.60;13.00;;;;;;;12.66;62.12;96406.50;6052515;23;20598;-83
2022/04/25 07:00:04;;;;;;;16.55;13.52;;;;;;;12.82;62.27;96420.19;6147947;23;20202;-83
2022/04/25 07:02:29;;;;;;;16.80;13.80;;;;;;;12.96;61.81;96412.44;6062619;23;20164;-82
2022/04/25 07:04:55;;;;;;;17.55;13.90;;;;;;;13.06;61.53;96414.94;6062862;23;20199;-83
2022/04/25 07:07:21;;;;;;;14.43;11.20;;;;;;;13.16;61.22;96413.28;6114951;23;20262;-82
2022/04/25 07:09:47;;;;;;;18.17;13.43;;;;;;;13.36;62.04;96407.06;6096606;23;20179;-83
2022/04/25 07:12:12;;;;;;;17.77;13.68;;;;;;;13.68;61.28;96409.75;6148587;23;20716;-83
2022/04/25 07:14:38;;;;;;;17.17;12.57;;;;;;;14.21;59.15;96421.81;6121412;23;20156;-84
2022/04/25 07:17:03;;;;;;;13.82;11.55;;;;;;;14.25;58.72;96416.78;6097135;23;20280;-83
2022/04/25 07:19:29;;;;;;;16.35;12.50;;;;;;;14.37;59.55;96419.72;6120948;23;20156;-83
2022/04/25 07:30:07;;;;;;;13.80;11.43;;;;;;;14.38;57.38;96421.28;6090517;23;20522;-82
2022/04/25 07:32:33;;;;;;;14.73;11.98;;;;;;;14.57;57.88;96426.47;6063694;23;20188;-83
2022/04/25 07:34:59;;;;;;;14.75;12.30;;;;;;;14.52;58.15;96431.03;6091102;23;20595;-83
2022/04/25 07:37:24;;;;;;;14.50;11.52;;;;;;;14.32;58.32;96421.66;6097940;23;20258;-82
2022/04/25 07:39:50;;;;;;;13.25;11.07;;;;;;;14.38;58.40;96429.16;6122222;23;20287;-82
2022/04/25 07:42:18;;;;;;;16.10;11.70;;;;;;;14.43;57.68;96423.06;6125282;23;20197;-85
2022/04/25 07:44:47;;;;;;;12.75;10.65;;;;;;;14.63;57.61;96423.81;6064923;23;20607;-81
2022/04/25 07:47:13;;;;;;;13.68;12.15;;;;;;;14.83;57.56;96427.91;6087610;23;20653;-81
2022/04/25 07:49:40;;;;;;;14.15;11.43;;;;;;;15.17;56.77;96425.69;6063193;23;20679;-82
2022/04/25 07:52:06;;;;;;;14.25;12.38;;;;;;;15.21;56.22;96428.50;6098081;23;20252;-82
2022/04/25 07:54:32;;;;;;;16.30;13.02;;;;;;;15.30;55.35;96436.47;6097514;23;20078;-82
2022/04/25 07:56:57;;;;;;;14.52;12.27;;;;;;;15.21;55.25;96435.59;6098207;23;20161;-81
2022/04/25 07:59:23;;;;;;;15.02;12.27;;;;;;;15.13;55.46;96437.03;6123983;23;20222;-82
2022/04/25 08:01:48;;;;;;;14.85;13.25;;;;;;;15.15;55.52;96421.81;6067528;23;20171;-85
2022/04/25 08:04:14;;;;;;;17.23;12.07;;;;;;;15.14;54.75;96436.75;6065488;23;20230;-83
2022/04/25 08:06:39;;;;;;;13.20;11.52;;;;;;;14.96;54.53;96437.66;6121123;23;20338;-85
2022/04/25 08:09:05;;;;;;;14.73;12.38;;;;;;;15.22;54.57;96432.69;6097304;23;20212;-84
2022/04/25 08:11:31;;;;;;;13.65;11.82;;;;;;;15.54;53.09;96434.41;6112089;23;20556;-82
2022/04/25 08:19:25;;;;;;;11.13;9.93;;;;;;;16.65;52.11;96441.13;6125109;23;20171;-83
2022/04/25 08:21:50;;;;;;;12.02;10.20;;;;;;;16.77;52.79;96438.69;6086057;23;20166;-83
2022/04/25 08:24:17;;;;;;;13.05;11.45;;;;;;;16.82;51.50;96443.06;6061911;23;20278;-83
2022/04/25 08:26:43;;;;;;;11.45;9.95;;;;;;;16.67;50.88;96447.63;6120966;23;20187;-83
2022/04/25 08:29:08;;;;;;;10.95;9.82;;;;;;;16.52;51.59;96444.59;6098266;23;20759;-82
2022/04/25 08:31:36;;;;;;;12.57;9.60;;;;;;;16.25;51.22;96446.28;6089161;23;20157;-83
2022/04/25 08:34:03;;;;;;;10.95;9.70;;;;;;;16.39;51.18;96423.34;6123026;23;20190;-83
2022/04/25 08:36:29;;;;;;;11.73;9.60;;;;;;;16.62;52.22;96450.38;6121369;23;20299;-83
2022/04/25 08:38:55;;;;;;;11.55;10.25;;;;;;;16.61;52.33;96448.81;6091535;23;20318;-83
2022/04/25 08:41:29;;;;;;;9.82;8.70;;;;;;;16.51;51.24;96449.06;6095922;23;20242;-83
2022/04/25 08:43:55;;;;;;;10.80;8.55;;;;;;;16.89;49.99;96448.69;6086129;23;20175;-82
2022/04/25 08:46:22;;;;;;;9.20;8.30;;;;;;;16.82;49.60;96450.94;6111342;23;20294;-83
2022/04/25 08:48:49;;;;;;;9.85;8.70;;;;;;;16.97;50.46;96458.47;6085724;23;20148;-81
2022/04/25 08:51:15;;;;;;;9.90;8.52;;;;;;;17.25;48.89;96453.00;6121055;23;20184;-80
2022/04/25 08:53:42;;;;;;;9.27;8.38;;;;;;;17.47;47.69;96454.00;6095612;23;20602;-80
2022/04/25 08:56:08;;;;;;;9.15;8.15;;;;;;;17.61;47.51;96459.91;6120284;23;20572;-82
2022/04/25 08:58:35;;;;;;;9.00;8.15;;;;;;;17.60;48.95;96467.03;6061305;23;20286;-80
2022/04/25 09:01:01;;;;;;;9.77;8.35;;;;;;;17.28;48.96;96455.03;6062009;23;20137;-81
2022/04/25 09:03:27;;;;;;;8.38;7.43;;;;;;;17.48;47.50;96460.78;6121336;23;20175;-80
2022/04/25 09:05:52;;;;;;;10.05;9.05;;;;;;;17.26;48.25;96469.56;6121132;23;20250;-80
2022/04/25 09:08:18;;;;;;;8.55;7.65;;;;;;;17.14;48.99;96470.91;6062178;23;20202;-80
2022/04/25 09:10:47;;;;;;;9.48;8.45;;;;;;;16.70;49.72;96471.75;6086633;23;20176;-80
2022/04/25 09:13:13;;;;;;;9.35;8.38;;;;;;;16.91;49.12;96483.34;6112991;23;20532;-80
2022/04/25 09:15:38;;;;;;;9.75;8.85;;;;;;;16.84;50.70;96467.22;6096727;23;20226;-80
2022/04/25 09:18:04;;;;;;;8.68;7.63;;;;;;;16.91;50.00;96472.81;6121374;23;20171;-82
2022/04/25 09:20:29;;;;;;;9.32;7.85;;;;;;;16.93;50.33;96475.16;6095725;23;20221;-82
2022/04/25 09:22:55;;;;;;;9.93;8.93;;;;;;;16.66;50.34;96477.63;6096507;23;20383;-85
2022/04/25 09:25:21;;;;;;;8.80;7.90;;;;;;;16.48;50.31;96468.06;6121352;23;20257;-85
2022/04/25 09:27:47;;;;;;;8.50;7.70;;;;;;;16.40;50.53;96468.78;6061994;23;20236;-85
2022/04/25 09:30:22;;;;;;;8.40;7.60;;;;;;;16.36;51.10;96467.84;6095594;23;20172;-83
2022/04/25 09:32:50;;;;;;;10.05;7.75;;;;;;;16.77;50.11;96456.34;6121866;23;20574;-84
2022/04/25 09:35:37;;;;;;;10.27;8.13;;;;;;;17.25;49.42;96455.63;6122804;23;20133;-82
2022/04/25 09:38:04;;;;;;;7.30;6.60;;;;;;;18.13;48.93;96457.34;6086291;23;20186;-83
2022/04/25 09:40:33;;;;;;;7.95;7.07;;;;;;;18.50;46.74;96470.16;6060423;23;20171;-83
2022/04/25 09:43:15;;;;;;;9.63;8.07;;;;;;;18.32;45.73;96458.88;6061732;23;20577;-83
2022/04/25 09:45:42;;;;;;;8.75;7.85;;;;;;;18.40;45.65;96462.59;6095211;23;20177;-82
2022/04/25 09:48:26;;;;;;;7.93;7.22;;;;;;;17.99;46.53;96456.72;6085399;23;20141;-82
2022/04/25 09:51:05;;;;;;;7.97;7.07;;;;;;;17.59;46.90;96459.44;6061046;23;20184;-84
2022/04/25 09:53:50;;;;;;;7.18;6.47;;;;;;;17.70;47.55;96459.91;6112551;23;20283;-82
2022/04/25 09:56:20;;;;;;;8.10;7.30;;;;;;;17.46;48.37;96466.38;6082523;23;20173;-82
2022/04/25 09:59:00;;;;;;;7.90;7.20;;;;;;;17.34;47.97;96466.97;6093613;23;20594;-81
2022/04/25 10:01:26;;;;;;;7.82;7.13;;;;;;;17.18;49.25;96463.19;6145767;23;20152;-83
2022/04/25 10:03:51;;;;;;;7.82;6.78;;;;;;;17.10;47.89;96469.19;6093317;23;20174;-82
2022/04/25 10:06:17;;;;;;;7.10;6.38;;;;;;;17.11;48.65;96473.38;6059415;23;20549;-81
2022/04/25 10:08:43;;;;;;;7.38;6.70;;;;;;;17.01;49.53;96479.66;6117679;23;20268;-81
2022/04/25 10:11:10;;;;;;;7.03;6.32;;;;;;;16.90;50.42;96488.91;6118210;23;20134;-82
2022/04/25 10:13:36;;;;;;;9.05;8.15;;;;;;;16.56;52.82;96493.63;6059813;23;20242;-81
2022/04/25 10:16:02;;;;;;;11.52;10.10;;;;;;;16.03;52.75;96499.56;6123621;23;20225;-87
2022/04/25 10:18:32;;;;;;;11.88;9.60;;;;;;;15.65;54.07;96503.19;6063587;23;20180;-87
2022/04/25 10:20:58;;;;;;;14.93;11.07;;;;;;;14.83;55.96;96514.41;6095356;23;20168;-81
2022/04/25 10:23:25;;;;;;;13.95;10.80;;;;;;;13.98;57.53;96527.38;6085768;23;20211;-84
2022/04/25 10:25:59;;;;;;;14.88;10.27;;;;;;;13.39;58.46;96548.47;6084751;23;20153;-81
2022/04/25 10:28:54;;;;;;;11.80;8.77;;;;;;;12.45;60.69;96562.53;6097544;23;20576;-89
2022/04/25 10:31:38;;;;;;;9.85;6.80;;;;;;;11.79;63.48;96576.69;6123300;23;20204;-85
2022/04/25 10:34:04;;;;;;;7.85;4.80;;;;;;;11.56;61.87;96591.84;6126741;23;20191;-83
2022/04/25 10:36:39;;;;;;;7.72;5.43;;;;;;;11.54;62.67;96590.56;6064056;23;20536;-85
2022/04/25 10:39:20;;;;;;;7.88;5.55;;;;;;;11.37;64.42;96594.25;6088957;23;20508;-84
2022/04/25 10:44:44;;;;;;;6.60;4.47;;;;;;;11.67;64.68;96602.25;6149341;23;20190;-84
2022/04/25 10:47:13;;;;;;;7.22;4.75;;;;;;;11.51;65.38;96597.06;6122601;23;20388;-87
2022/04/25 10:50:02;;;;;;;6.15;4.93;;;;;;;11.38;65.93;96587.22;6087833;23;20147;-87
2022/04/25 10:52:37;;;;;;;5.88;4.43;;;;;;;11.51;65.96;96598.91;6060752;23;20167;-86
2022/04/25 10:55:23;;;;;;;6.97;4.83;;;;;;;11.44;66.26;96584.31;6115891;23;20183;-89
2022/04/25 10:58:03;;;;;;;7.75;5.18;;;;;;;11.44;67.54;96579.09;6087250;23;20210;-83
2022/04/25 11:00:41;;;;;;;9.70;6.22;;;;;;;11.37;67.52;96588.25;6119915;23;20254;-83
2022/04/25 11:03:25;;;;;;;7.93;5.60;;;;;;;11.64;67.84;96571.53;6085107;23;20246;-82
2022/04/25 11:06:05;;;;;;;8.00;5.45;;;;;;;11.34;67.09;96565.31;6114532;23;20259;-84
2022/04/25 11:08:35;;;;;;;7.35;4.70;;;;;;;11.40;65.92;96569.50;6120149;23;20252;-85
2022/04/25 11:11:06;;;;;;;8.45;5.38;;;;;;;11.55;67.16;96561.63;6121969;23;20531;-84
2022/04/25 11:14:04;;;;;;;7.22;5.95;;;;;;;11.87;66.79;96568.28;6087484;23;20149;-84
2022/04/25 11:16:29;;;;;;;7.07;5.60;;;;;;;12.19;66.16;96567.13;6149051;23;20236;-84
2022/04/25 11:19:07;;;;;;;9.27;6.63;;;;;;;12.54;67.73;96575.78;6121777;23;20599;-84
2022/04/25 11:21:32;;;;;;;8.65;7.22;;;;;;;12.72;66.47;96564.72;6111159;23;20311;-84
2022/04/25 11:24:01;;;;;;;9.40;7.30;;;;;;;12.95;66.61;96566.88;6085609;23;20275;-83
2022/04/25 11:26:26;;;;;;;9.98;7.07;;;;;;;13.21;66.00;96560.41;6122277;23;20226;-84
2022/04/25 11:29:01;;;;;;;10.25;6.97;;;;;;;13.26;66.22;96575.22;6143764;23;20602;-84
2022/04/25 11:31:30;;;;;;;8.45;6.25;;;;;;;13.60;64.70;96569.94;6148930;23;20295;-84
2022/04/25 11:34:01;;;;;;;10.10;7.55;;;;;;;13.71;66.33;96577.69;6123688;23;20625;-83
2022/04/25 11:36:27;;;;;;;8.25;6.15;;;;;;;13.91;65.82;96581.91;6062295;23;20146;-82
2022/04/25 11:41:39;;;;;;;9.32;6.47;;;;;;;14.57;64.00;96578.44;6125526;23;20184;-83
2022/04/25 11:44:05;;;;;;;7.07;6.13;;;;;;;14.75;63.79;96578.72;6121370;23;20216;-83
2022/04/25 11:46:33;;;;;;;8.20;6.72;;;;;;;14.95;64.37;96580.25;6062296;23;20173;-83
2022/04/25 11:48:58;;;;;;;8.15;5.97;;;;;;;15.33;63.27;96583.53;6096235;23;20177;-82
2022/04/25 11:51:29;;;;;;;7.82;5.40;;;;;;;15.22;62.08;96573.53;6120276;23;20157;-85
2022/04/25 11:54:04;;;;;;;6.38;5.47;;;;;;;15.26;61.45;96582.38;6119956;23;20148;-83
2022/04/25 11:56:32;;;;;;;6.00;5.38;;;;;;;15.59;62.32;96580.44;6119779;23;20176;-82